WTTO2: Illinois River, Watts, OK

Data processed at Sun Apr 30 2017 22:34


All information presented herein is the property of the government of the United States of America and may be revised or deleted at any time without prior notice.
Dissemination of this information without the expressed written consent of the Public Affairs Office, Tulsa District U.S. Army Corps of Engineers is strictly prohibited.
These data are gathered electronically and, as presented, have not undergone any form of quality control. These data are not guaranteed to be valid or correct.
Go to home page.
Go to station list.
Go to station map.

Upstream stations:

Downstream station:
Previous Day
Next Day
Current Day
    
SHEF ID:       WTTO2     Illinois River near Watts, OK
STATION TYPE:  

               PRECIP     STAGE  STAGE(2)  RIV-FLOW   VOLTAGE  BAT-LOAD
                   in        ft        ft       cfs      volt      volt
              Ccp-Rev   Ccp-Rev   Ccp-Rev   Ccp-Rev   Ccp-Rev   Ccp-Rev
(US/Central)
04/30 00:00      0.03     24.96     23.11     54802     12.70     11.77
04/30 01:00      0.01     25.97     24.06     66995     12.70     11.77
04/30 02:00      0.00     26.85     24.48     79370     12.80     11.77
04/30 03:00      0.08     27.20     24.56     84772     12.80     11.77
04/30 04:00      0.02     28.73     25.04    111952     12.70     11.77
04/30 05:00      0.04     29.18     26.63    121148     12.80     11.77
04/30 06:00      0.00     29.94     26.96    138045     12.70     11.77
04/30 07:00      0.01     30.12     26.72    139455     12.80     11.77
04/30 08:00      0.00     29.45     26.92    126950     12.70     11.77
04/30 09:00      0.00     29.01     26.14    117606     13.10     11.95
04/30 10:00      0.00     28.66     25.09    110574     13.80     12.19
04/30 11:00      0.03     27.64     24.98     91977     14.00     12.83
04/30 12:00      0.00     26.69     24.24     76994     14.00     13.00
04/30 13:00      0.00     25.81     23.35     64922     14.00     13.07
04/30 14:00      0.00     24.90     22.49     54209     14.00     13.07
04/30 15:00      0.00     24.08     21.92     46596     14.00     13.07
04/30 16:00      0.00     23.34     20.63     40516     13.80     12.89
04/30 17:00      0.00     22.59     20.46     35481     13.60     12.83
04/30 18:00      0.00     21.95     20.09     32154     13.30     12.60
04/30 19:00      0.00     21.36     19.42     29835     13.10     12.36
04/30 20:00      0.00     20.77     18.45     27859     13.00     12.19
04/30 21:00      0.00     20.16     18.33     26058     12.90     12.01
04/30 22:00      0.00     19.50     17.37     24200     12.90     11.95
04/30 23:00      ----      ----      ----      ----      ----      ----